createdAt,value
2022-10-13T00:00:45.467Z,13.87
2022-10-13T00:03:12.859Z,14.60
2022-10-13T00:05:45.229Z,14.20
2022-10-13T00:08:13.408Z,15.03
2022-10-13T00:10:40.927Z,14.87
2022-10-13T00:13:08.514Z,16.20
2022-10-13T00:15:42.974Z,14.90
2022-10-13T00:18:09.668Z,16.43
2022-10-13T00:20:40.279Z,15.00
2022-10-13T00:23:06.928Z,15.60
2022-10-13T00:25:33.644Z,16.23
2022-10-13T00:28:00.328Z,16.10
2022-10-13T00:30:27.081Z,17.37
2022-10-13T00:32:53.712Z,16.17
2022-10-13T00:35:20.358Z,16.20
2022-10-13T00:37:47.109Z,16.17
2022-10-13T00:40:13.833Z,16.00
2022-10-13T00:42:41.753Z,15.83
2022-10-13T00:45:22.332Z,15.73
2022-10-13T00:47:54.620Z,17.70
2022-10-13T00:50:29.916Z,17.53
2022-10-13T00:52:57.276Z,18.90
2022-10-13T00:55:27.899Z,16.93
2022-10-13T00:57:56.065Z,17.97
2022-10-13T01:00:24.249Z,19.03
2022-10-13T01:02:51.510Z,18.27
2022-10-13T01:05:20.742Z,16.13
2022-10-13T01:07:51.910Z,19.13
2022-10-13T01:10:48.224Z,16.40
2022-10-13T01:13:39.929Z,19.70
2022-10-13T01:16:24.113Z,19.40
2022-10-13T01:19:40.226Z,19.57
2022-10-13T01:22:16.538Z,18.37
2022-10-13T01:25:15.020Z,19.10
2022-10-13T01:27:44.461Z,18.20
2022-10-13T01:30:19.810Z,18.50
2022-10-13T01:32:57.719Z,17.87
2022-10-13T01:35:31.036Z,17.93
2022-10-13T01:38:22.018Z,17.20
2022-10-13T01:41:14.630Z,19.20
2022-10-13T01:43:51.829Z,16.90
2022-10-13T01:46:21.987Z,17.30
2022-10-13T01:48:51.730Z,18.17
2022-10-13T01:51:21.404Z,16.93
2022-10-13T01:53:49.072Z,19.17
2022-10-13T01:56:16.493Z,19.57
2022-10-13T01:58:44.593Z,18.53
2022-10-13T02:01:42.233Z,17.80
2022-10-13T02:04:17.739Z,17.50
2022-10-13T02:07:02.058Z,18.03
2022-10-13T02:09:38.068Z,18.60
2022-10-13T02:12:33.345Z,19.80
2022-10-13T02:15:01.229Z,18.10
2022-10-13T02:17:28.824Z,19.13
2022-10-13T02:19:56.493Z,19.37
2022-10-13T02:22:32.383Z,18.33
2022-10-13T02:24:59.889Z,19.50
2022-10-13T02:27:26.822Z,18.83
2022-10-13T02:29:56.446Z,19.57
2022-10-13T02:32:23.901Z,18.10
2022-10-13T02:34:51.330Z,20.30
2022-10-13T02:37:18.299Z,20.23
2022-10-13T02:39:45.098Z,19.80
2022-10-13T02:42:12.115Z,20.97
2022-10-13T02:44:40.053Z,21.07
2022-10-13T02:47:06.702Z,20.57
2022-10-13T02:49:33.375Z,19.43
2022-10-13T02:52:00.006Z,21.50
2022-10-13T02:54:26.624Z,18.40
2022-10-13T02:56:53.395Z,19.87
2022-10-13T02:59:20.025Z,19.37
2022-10-13T03:01:46.676Z,17.33
2022-10-13T03:04:13.331Z,21.07
2022-10-13T03:06:39.985Z,18.80
2022-10-13T03:09:06.685Z,19.70
2022-10-13T03:11:34.080Z,18.80
2022-10-13T03:14:00.922Z,19.50
2022-10-13T03:16:27.560Z,19.70
2022-10-13T03:18:54.436Z,18.87
2022-10-13T03:21:21.146Z,17.87
2022-10-13T03:23:47.876Z,18.10
2022-10-13T03:26:15.508Z,18.67
2022-10-13T03:28:42.415Z,18.43
2022-10-13T03:31:11.168Z,17.20
2022-10-13T03:33:37.797Z,19.07
2022-10-13T03:36:07.437Z,17.67
2022-10-13T03:38:35.413Z,19.20
2022-10-13T03:41:07.126Z,15.97
2022-10-13T03:43:34.249Z,18.60
2022-10-13T03:46:03.142Z,17.47
2022-10-13T03:48:30.598Z,15.37
2022-10-13T03:50:58.135Z,16.60
2022-10-13T03:53:25.509Z,17.50
2022-10-13T03:55:54.645Z,16.80
2022-10-13T03:58:23.688Z,15.73
2022-10-13T04:00:50.917Z,17.50
2022-10-13T04:03:18.490Z,18.03
2022-10-13T04:05:45.232Z,18.20
2022-10-13T04:08:12.426Z,15.77
2022-10-13T04:10:39.631Z,15.10
2022-10-13T04:13:06.794Z,14.93
2022-10-13T04:15:40.563Z,14.47
2022-10-13T04:18:08.438Z,14.03
2022-10-13T04:20:39.869Z,15.20
2022-10-13T04:23:07.452Z,14.30
2022-10-13T04:25:38.160Z,14.67
2022-10-13T04:28:06.417Z,14.10
2022-10-13T04:30:34.983Z,13.47
2022-10-13T04:33:01.696Z,14.43
2022-10-13T04:35:28.630Z,13.77
2022-10-13T04:37:57.909Z,14.83
2022-10-13T04:40:26.179Z,14.60
2022-10-13T04:42:52.909Z,13.90
2022-10-13T04:45:19.584Z,14.23
2022-10-13T04:47:46.275Z,15.03
2022-10-13T04:50:13.209Z,13.93
2022-10-13T04:52:39.840Z,14.37
2022-10-13T04:55:07.174Z,14.60
2022-10-13T04:57:33.848Z,14.03
2022-10-13T05:00:00.602Z,15.37
2022-10-13T05:02:28.117Z,15.37
2022-10-13T05:04:54.769Z,15.33
2022-10-13T05:07:21.778Z,15.60
2022-10-13T05:09:48.517Z,15.00
2022-10-13T05:12:15.551Z,14.33
2022-10-13T05:14:42.201Z,14.27
2022-10-13T05:17:08.889Z,15.60
2022-10-13T05:19:36.286Z,15.20
2022-10-13T05:22:02.984Z,14.97
2022-10-13T05:24:39.074Z,14.00
2022-10-13T05:27:09.754Z,15.80
2022-10-13T05:29:37.072Z,15.17
2022-10-13T05:32:04.537Z,15.73
2022-10-13T05:34:32.592Z,15.30
2022-10-13T05:37:00.313Z,14.63
2022-10-13T05:39:27.227Z,14.63
2022-10-13T05:41:53.919Z,15.90
2022-10-13T05:44:21.764Z,14.90
2022-10-13T05:46:48.501Z,14.80
2022-10-13T05:49:15.705Z,17.40
2022-10-13T05:51:50.554Z,15.87
2022-10-13T05:54:23.131Z,13.30
2022-10-13T05:57:11.126Z,14.63
2022-10-13T05:59:42.909Z,16.07
2022-10-13T06:02:12.468Z,14.43
2022-10-13T06:04:44.696Z,17.07
2022-10-13T06:07:12.089Z,15.80
2022-10-13T06:09:41.660Z,14.00
2022-10-13T06:12:09.909Z,16.17
2022-10-13T06:14:36.784Z,15.40
2022-10-13T06:17:03.552Z,14.90
2022-10-13T06:19:30.312Z,16.00
2022-10-13T06:22:00.010Z,15.90
2022-10-13T06:24:29.514Z,16.07
2022-10-13T06:26:56.208Z,15.60
2022-10-13T06:29:22.933Z,15.37
2022-10-13T06:31:49.610Z,15.07
2022-10-13T06:34:16.420Z,15.23
2022-10-13T06:36:43.181Z,16.47
2022-10-13T06:39:10.369Z,17.23
2022-10-13T06:41:37.078Z,15.40
2022-10-13T06:44:04.031Z,14.20
2022-10-13T06:46:30.739Z,16.90
2022-10-13T06:48:57.479Z,15.50
2022-10-13T06:51:24.385Z,16.10
2022-10-13T06:53:51.230Z,14.97
2022-10-13T06:56:17.999Z,15.47
2022-10-13T06:58:44.817Z,17.00
2022-10-13T07:01:13.438Z,15.30
2022-10-13T07:03:40.282Z,14.13
2022-10-13T07:06:07.864Z,14.97
2022-10-13T07:08:35.675Z,15.70
2022-10-13T07:11:16.253Z,16.90
2022-10-13T07:13:46.450Z,14.20
2022-10-13T07:16:15.266Z,16.70
2022-10-13T07:18:41.985Z,16.03
2022-10-13T07:21:09.507Z,16.70
2022-10-13T07:23:36.189Z,16.93
2022-10-13T07:26:08.127Z,14.97
2022-10-13T07:28:35.108Z,15.70
2022-10-13T07:31:15.451Z,14.53
2022-10-13T07:33:44.456Z,15.03
2022-10-13T07:36:12.082Z,15.40
2022-10-13T07:38:39.085Z,15.43
2022-10-13T07:41:07.934Z,14.43
2022-10-13T07:43:35.013Z,13.93
2022-10-13T07:46:04.890Z,14.93
2022-10-13T07:48:32.607Z,13.43
2022-10-13T07:51:02.819Z,14.40
2022-10-13T07:53:29.530Z,14.40
2022-10-13T07:56:00.442Z,15.97
2022-10-13T07:58:27.333Z,16.03
2022-10-13T08:01:01.842Z,14.30
2022-10-13T08:03:28.949Z,14.60
2022-10-13T08:05:58.396Z,14.60
2022-10-13T08:08:25.239Z,15.43
2022-10-13T08:10:52.080Z,14.03
2022-10-13T08:13:18.959Z,14.40
2022-10-13T08:15:46.697Z,16.13
2022-10-13T08:18:14.573Z,14.57
2022-10-13T08:20:45.689Z,14.40
2022-10-13T08:23:13.667Z,14.23
2022-10-13T08:25:41.975Z,12.37
2022-10-13T08:28:21.835Z,13.97
2022-10-13T08:30:50.401Z,14.17
2022-10-13T08:33:17.425Z,14.70
2022-10-13T08:35:44.087Z,14.27
2022-10-13T08:38:10.909Z,13.20
2022-10-13T08:40:38.832Z,13.67
2022-10-13T08:43:09.231Z,12.80
2022-10-13T08:45:41.205Z,11.17
2022-10-13T08:48:26.039Z,12.67
2022-10-13T08:50:56.583Z,11.10
2022-10-13T08:53:34.358Z,12.37
2022-10-13T08:56:21.285Z,12.00
2022-10-13T08:58:50.021Z,12.60
2022-10-13T09:01:18.714Z,12.00
2022-10-13T09:03:48.784Z,11.57
2022-10-13T09:06:21.718Z,12.97
2022-10-13T09:08:51.210Z,9.43
2022-10-13T09:11:18.431Z,11.80
2022-10-13T09:13:45.250Z,10.53
2022-10-13T09:16:11.957Z,11.40
2022-10-13T09:18:38.819Z,10.23
2022-10-13T09:21:20.254Z,11.03
2022-10-13T09:23:49.931Z,10.00
2022-10-13T09:26:23.412Z,10.37
2022-10-13T09:28:52.481Z,11.20
2022-10-13T09:31:30.235Z,9.70
2022-10-13T09:34:02.076Z,11.03
2022-10-13T09:36:29.287Z,11.17
2022-10-13T09:39:15.657Z,10.07
2022-10-13T09:41:43.842Z,10.47
2022-10-13T09:44:17.834Z,9.80
2022-10-13T09:46:51.753Z,10.00
2022-10-13T09:49:42.650Z,9.80
2022-10-13T09:52:12.096Z,9.83
2022-10-13T09:54:48.203Z,9.27
2022-10-13T09:57:20.898Z,9.30
2022-10-13T09:59:54.209Z,9.40
2022-10-13T10:02:38.170Z,9.60
2022-10-13T10:05:34.972Z,9.03
2022-10-13T10:08:33.580Z,10.23
2022-10-13T10:11:05.118Z,8.57
2022-10-13T10:13:31.986Z,8.00
2022-10-13T10:16:07.652Z,9.17
2022-10-13T10:18:57.751Z,9.37
2022-10-13T10:21:41.777Z,8.47
2022-10-13T10:24:24.620Z,9.00
2022-10-13T10:26:55.117Z,8.30
2022-10-13T10:29:50.458Z,8.50
2022-10-13T10:32:20.276Z,6.23
2022-10-13T10:35:04.472Z,9.20
2022-10-13T10:37:39.841Z,9.10
2022-10-13T10:40:29.515Z,7.23
2022-10-13T10:43:16.438Z,7.37
2022-10-13T10:45:45.093Z,7.57
2022-10-13T10:48:24.113Z,8.60
2022-10-13T10:50:54.720Z,7.80
2022-10-13T10:53:38.154Z,7.63
2022-10-13T10:56:15.778Z,7.33
2022-10-13T10:59:06.792Z,7.67
2022-10-13T11:01:52.143Z,7.87
2022-10-13T11:04:41.839Z,6.80
2022-10-13T11:07:23.583Z,6.63
2022-10-13T11:09:53.969Z,6.30
2022-10-13T11:12:21.191Z,6.90
2022-10-13T11:14:54.281Z,6.53
2022-10-13T11:17:39.131Z,7.87
2022-10-13T11:20:20.751Z,7.20
2022-10-13T11:22:59.662Z,5.73
2022-10-13T11:25:35.671Z,7.60
2022-10-13T11:28:22.516Z,7.20
2022-10-13T11:31:18.029Z,7.70
2022-10-13T11:33:46.631Z,7.90
2022-10-13T11:36:55.759Z,6.40
2022-10-13T11:39:28.233Z,7.33
2022-10-13T11:42:16.395Z,6.73
2022-10-13T11:44:59.630Z,7.33
2022-10-13T11:47:48.057Z,7.30
2022-10-13T11:50:14.727Z,6.80
2022-10-13T11:53:01.234Z,6.43
2022-10-13T11:55:48.845Z,7.07
2022-10-13T11:58:19.243Z,7.00
2022-10-13T12:00:53.379Z,6.87
2022-10-13T12:03:32.180Z,6.20
2022-10-13T12:06:22.032Z,6.23
2022-10-13T12:08:51.077Z,6.57
2022-10-13T12:11:25.801Z,6.00
2022-10-13T12:13:52.945Z,6.43
2022-10-13T12:16:20.927Z,6.47
2022-10-13T12:18:47.850Z,6.20
2022-10-13T12:21:21.177Z,6.27
2022-10-13T12:23:49.570Z,6.13
2022-10-13T12:26:22.844Z,7.03
2022-10-13T12:28:56.751Z,6.23
2022-10-13T12:31:40.383Z,7.00
2022-10-13T12:34:35.866Z,5.53
2022-10-13T12:37:11.513Z,5.17
2022-10-13T12:39:39.280Z,5.87
2022-10-13T12:42:10.828Z,5.90
2022-10-13T12:44:38.129Z,6.57
2022-10-13T12:47:04.918Z,6.27
2022-10-13T12:49:33.441Z,5.23
2022-10-13T12:52:09.051Z,5.30
2022-10-13T12:54:48.529Z,5.57
2022-10-13T12:57:22.397Z,5.80
2022-10-13T12:59:49.733Z,6.03
2022-10-13T13:02:27.076Z,6.10
2022-10-13T13:04:54.096Z,5.50
2022-10-13T13:07:28.157Z,5.37
2022-10-13T13:10:15.865Z,5.93
2022-10-13T13:12:44.106Z,5.90
2022-10-13T13:15:34.130Z,4.80
2022-10-13T13:18:39.770Z,5.17
2022-10-13T13:21:12.885Z,4.80
2022-10-13T13:23:40.390Z,5.47
2022-10-13T13:26:13.224Z,5.40
2022-10-13T13:28:46.140Z,5.10
2022-10-13T13:31:17.405Z,5.90
2022-10-13T13:33:44.294Z,5.80
2022-10-13T13:36:15.498Z,5.13
2022-10-13T13:38:42.319Z,5.30
2022-10-13T13:41:11.523Z,5.23
2022-10-13T13:43:38.627Z,4.97
2022-10-13T13:46:07.194Z,5.77
2022-10-13T13:48:34.084Z,5.80
2022-10-13T13:51:00.940Z,4.90
2022-10-13T13:53:27.690Z,4.90
2022-10-13T13:55:54.493Z,5.43
2022-10-13T13:58:21.385Z,5.40
2022-10-13T14:00:48.283Z,6.10
2022-10-13T14:03:19.269Z,5.30
2022-10-13T14:05:46.356Z,5.87
2022-10-13T14:08:13.001Z,6.50
2022-10-13T14:10:41.132Z,5.93
2022-10-13T14:13:07.940Z,6.40
2022-10-13T14:15:34.627Z,5.10
2022-10-13T14:18:01.369Z,5.50
2022-10-13T14:20:28.273Z,5.50
2022-10-13T14:22:55.031Z,5.67
2022-10-13T14:25:21.853Z,5.90
2022-10-13T14:27:48.594Z,5.20
2022-10-13T14:30:15.785Z,4.87
2022-10-13T14:32:42.918Z,5.27
2022-10-13T14:35:09.598Z,5.70
2022-10-13T14:37:36.496Z,4.83
2022-10-13T14:40:03.668Z,6.13
2022-10-13T14:42:30.386Z,4.83
2022-10-13T14:44:57.053Z,6.03
2022-10-13T14:47:24.112Z,5.73
2022-10-13T14:49:50.854Z,5.47
2022-10-13T14:52:18.116Z,4.93
2022-10-13T14:54:45.294Z,5.70
2022-10-13T14:57:15.909Z,5.00
2022-10-13T14:59:43.402Z,6.80
2022-10-13T15:02:13.800Z,6.33
2022-10-13T15:04:40.589Z,7.47
2022-10-13T15:07:07.702Z,7.30
2022-10-13T15:09:45.506Z,8.20
2022-10-13T15:12:20.915Z,6.77
2022-10-13T15:14:47.846Z,7.77
2022-10-13T15:17:14.601Z,7.50
2022-10-13T15:19:41.323Z,9.67
2022-10-13T15:22:08.119Z,8.90
2022-10-13T15:24:34.916Z,7.90
2022-10-13T15:27:01.700Z,8.70
2022-10-13T15:29:28.476Z,8.43
2022-10-13T15:32:08.857Z,8.17
2022-10-13T15:34:35.710Z,9.33
2022-10-13T15:37:02.640Z,8.23
2022-10-13T15:39:29.374Z,8.80
2022-10-13T15:41:56.700Z,8.63
2022-10-13T15:44:27.196Z,7.93
2022-10-13T15:47:07.502Z,8.37
2022-10-13T15:49:39.931Z,9.53
2022-10-13T15:52:06.754Z,8.00
2022-10-13T15:54:33.634Z,7.80
2022-10-13T15:57:00.532Z,8.10
2022-10-13T15:59:27.355Z,9.17
2022-10-13T16:01:54.106Z,8.20
2022-10-13T16:04:20.961Z,8.10
2022-10-13T16:06:47.660Z,8.30
2022-10-13T16:09:14.382Z,8.67
2022-10-13T16:11:41.694Z,8.50
2022-10-13T16:14:09.193Z,8.00
2022-10-13T16:16:35.881Z,10.33
2022-10-13T16:19:02.708Z,9.47
2022-10-13T16:21:29.532Z,9.07
2022-10-13T16:23:56.772Z,9.57
2022-10-13T16:26:23.750Z,9.90
2022-10-13T16:28:54.650Z,11.80
2022-10-13T16:31:21.504Z,10.13
2022-10-13T16:33:48.581Z,10.53
2022-10-13T16:36:18.455Z,10.17
2022-10-13T16:38:46.724Z,11.53
2022-10-13T16:41:18.339Z,11.17
2022-10-13T16:43:45.790Z,10.57
2022-10-13T16:46:14.866Z,10.47
2022-10-13T16:48:42.819Z,12.73
2022-10-13T16:51:13.385Z,11.70
2022-10-13T16:53:40.720Z,11.40
2022-10-13T16:56:08.443Z,11.40
2022-10-13T16:58:35.659Z,10.90
2022-10-13T17:01:08.847Z,10.40
2022-10-13T17:03:36.917Z,10.50
2022-10-13T17:06:04.006Z,10.40
2022-10-13T17:08:31.258Z,10.80
2022-10-13T17:11:00.018Z,11.37
2022-10-13T17:13:27.251Z,10.33
2022-10-13T17:15:56.160Z,11.83
2022-10-13T17:18:24.043Z,11.63
2022-10-13T17:21:02.097Z,11.53
2022-10-13T17:23:29.986Z,11.80
2022-10-13T17:26:01.635Z,10.93
2022-10-13T17:28:28.608Z,14.23
2022-10-13T17:31:00.033Z,15.10
2022-10-13T17:33:31.689Z,11.70
2022-10-13T17:36:03.455Z,12.00
2022-10-13T17:38:30.872Z,12.80
2022-10-13T17:41:06.489Z,12.90
2022-10-13T17:43:35.043Z,13.13
2022-10-13T17:46:34.389Z,13.60
2022-10-13T17:48:57.262Z,13.03
2022-10-13T17:51:24.649Z,12.50
2022-10-13T17:53:52.472Z,13.33
2022-10-13T17:56:24.358Z,12.77
2022-10-13T17:58:52.487Z,12.03
2022-10-13T18:01:25.815Z,13.37
2022-10-13T18:03:58.684Z,15.33
2022-10-13T18:06:26.867Z,15.87
2022-10-13T18:08:53.692Z,12.93
2022-10-13T18:11:22.457Z,13.37
2022-10-13T18:13:49.845Z,13.53
2022-10-13T18:16:22.458Z,12.70
2022-10-13T18:18:50.667Z,15.67
2022-10-13T18:21:22.311Z,15.23
2022-10-13T18:23:49.192Z,18.10
2022-10-13T18:26:18.624Z,15.60
2022-10-13T18:28:47.152Z,14.53
2022-10-13T18:31:27.708Z,14.67
2022-10-13T18:33:59.449Z,14.50
2022-10-13T18:36:37.158Z,15.30
2022-10-13T18:39:13.893Z,14.93
2022-10-13T18:41:41.860Z,15.50
2022-10-13T18:44:09.421Z,14.93
2022-10-13T18:46:37.518Z,16.10
2022-10-13T18:49:06.251Z,15.13
2022-10-13T18:51:36.127Z,15.50
2022-10-13T18:54:03.995Z,15.13
2022-10-13T18:56:32.129Z,14.87
2022-10-13T18:59:02.008Z,14.80
2022-10-13T19:01:35.457Z,14.93
2022-10-13T19:04:02.802Z,14.17
2022-10-13T19:06:32.326Z,14.00
2022-10-13T19:09:08.848Z,13.37
2022-10-13T19:11:36.306Z,11.97
2022-10-13T19:14:05.761Z,15.00
2022-10-13T19:16:37.094Z,13.57
2022-10-13T19:19:03.921Z,13.50
2022-10-13T19:21:32.110Z,13.43
2022-10-13T19:24:00.014Z,14.43
2022-10-13T19:26:30.647Z,14.73
2022-10-13T19:29:00.758Z,15.80
2022-10-13T19:31:29.450Z,13.30
2022-10-13T19:33:57.478Z,15.40
2022-10-13T19:36:25.827Z,15.50
2022-10-13T19:38:53.165Z,14.97
2022-10-13T19:41:20.082Z,14.50
2022-10-13T19:43:47.215Z,15.27
2022-10-13T19:46:14.810Z,15.40
2022-10-13T19:48:41.809Z,15.87
2022-10-13T19:51:10.657Z,15.60
2022-10-13T19:53:38.531Z,14.30
2022-10-13T19:56:06.719Z,14.97
2022-10-13T19:58:34.596Z,16.07
2022-10-13T20:01:06.915Z,16.10
2022-10-13T20:03:34.106Z,17.23
2022-10-13T20:06:05.427Z,15.33
2022-10-13T20:08:32.440Z,16.57
2022-10-13T20:11:00.789Z,15.37
2022-10-13T20:13:28.202Z,17.87
2022-10-13T20:15:55.494Z,16.70
2022-10-13T20:18:22.487Z,19.10
2022-10-13T20:20:49.534Z,18.57
2022-10-13T20:23:16.701Z,15.50
2022-10-13T20:25:43.559Z,16.20
2022-10-13T20:28:10.612Z,17.83
2022-10-13T20:30:39.866Z,16.77
2022-10-13T20:33:06.805Z,16.00
2022-10-13T20:35:33.638Z,16.10
2022-10-13T20:38:00.551Z,17.07
2022-10-13T20:40:27.343Z,16.40
2022-10-13T20:42:54.362Z,15.83
2022-10-13T20:45:21.219Z,16.23
2022-10-13T20:47:48.808Z,17.80
2022-10-13T20:50:15.832Z,16.70
2022-10-13T20:52:42.889Z,15.60
2022-10-13T20:55:10.303Z,16.73
2022-10-13T20:57:37.196Z,17.07
2022-10-13T21:00:05.864Z,15.00
2022-10-13T21:02:33.032Z,14.63
2022-10-13T21:04:59.759Z,15.40
2022-10-13T21:07:28.517Z,17.37
2022-10-13T21:09:55.344Z,16.37
2022-10-13T21:12:22.064Z,17.50
2022-10-13T21:14:49.071Z,16.53
2022-10-13T21:17:16.000Z,15.70
2022-10-13T21:19:42.796Z,15.10
2022-10-13T21:22:09.594Z,17.10
2022-10-13T21:24:36.315Z,15.57
2022-10-13T21:27:03.409Z,16.23
2022-10-13T21:29:30.259Z,15.90
2022-10-13T21:31:57.080Z,15.97
2022-10-13T21:34:23.819Z,16.33
2022-10-13T21:36:50.536Z,15.30
2022-10-13T21:39:17.280Z,15.53
2022-10-13T21:41:44.014Z,15.60
2022-10-13T21:44:14.081Z,17.47
2022-10-13T21:46:41.202Z,16.73
2022-10-13T21:49:07.911Z,20.03
2022-10-13T21:51:39.853Z,16.70
2022-10-13T21:54:12.298Z,17.53
2022-10-13T21:56:40.593Z,16.30
2022-10-13T21:59:08.859Z,15.63
2022-10-13T22:01:35.603Z,17.10
2022-10-13T22:04:02.789Z,16.07
2022-10-13T22:06:31.965Z,17.10
2022-10-13T22:09:01.675Z,18.00
2022-10-13T22:11:30.457Z,15.93
2022-10-13T22:13:57.946Z,16.00
2022-10-13T22:16:30.806Z,15.47
2022-10-13T22:18:58.323Z,16.07
2022-10-13T22:21:28.493Z,16.60
2022-10-13T22:24:00.649Z,17.23
2022-10-13T22:26:30.107Z,14.30
2022-10-13T22:29:01.389Z,15.53
2022-10-13T22:31:29.023Z,15.93
2022-10-13T22:33:56.133Z,16.13
2022-10-13T22:36:24.946Z,16.53
2022-10-13T22:38:54.094Z,14.70
2022-10-13T22:41:21.091Z,15.30
2022-10-13T22:43:55.864Z,15.33
2022-10-13T22:46:25.097Z,15.00
2022-10-13T22:48:52.096Z,13.83
2022-10-13T22:51:20.966Z,14.23
2022-10-13T22:53:49.008Z,13.77
2022-10-13T22:56:18.920Z,14.77
2022-10-13T22:58:53.231Z,14.50
2022-10-13T23:01:20.778Z,15.60
2022-10-13T23:03:56.782Z,14.00
2022-10-13T23:06:30.232Z,15.00
2022-10-13T23:08:59.669Z,14.50
2022-10-13T23:11:26.580Z,14.40
2022-10-13T23:13:53.271Z,14.47
2022-10-13T23:16:24.996Z,13.77
2022-10-13T23:18:52.137Z,13.70
2022-10-13T23:21:20.697Z,13.87
2022-10-13T23:23:47.808Z,13.97
2022-10-13T23:26:16.749Z,14.37
2022-10-13T23:28:44.371Z,14.90
2022-10-13T23:31:14.217Z,14.00
2022-10-13T23:33:41.350Z,13.10
2022-10-13T23:36:10.682Z,12.20
2022-10-13T23:38:37.599Z,12.47
2022-10-13T23:41:09.600Z,12.40
2022-10-13T23:43:36.408Z,11.73
2022-10-13T23:46:03.721Z,12.67
2022-10-13T23:48:30.639Z,12.90
2022-10-13T23:50:57.870Z,12.70
2022-10-13T23:53:24.979Z,11.60
2022-10-13T23:55:51.665Z,11.63
2022-10-13T23:58:18.399Z,11.10
